createdAt,value
2017-10-31T00:00:00.276Z,98806.06
2017-10-31T00:02:28.970Z,98805.88
2017-10-31T00:04:58.631Z,98813.20
2017-10-31T00:07:28.472Z,98820.70
2017-10-31T00:09:56.756Z,98814.44
2017-10-31T00:12:27.349Z,98815.23
2017-10-31T00:14:55.763Z,98814.42
2017-10-31T00:17:24.039Z,98808.39
2017-10-31T00:19:52.124Z,98808.26
2017-10-31T00:22:23.483Z,98808.83
2017-10-31T00:24:53.015Z,98804.32
2017-10-31T00:27:21.516Z,98807.74
2017-10-31T00:29:49.987Z,98807.77
2017-10-31T00:32:19.456Z,98811.37
2017-10-31T00:34:47.705Z,98815.07
2017-10-31T00:37:16.180Z,98814.09
2017-10-31T00:39:45.555Z,98812.48
2017-10-31T00:42:14.109Z,98812.03
2017-10-31T00:44:42.539Z,98818.83
2017-10-31T00:47:11.786Z,98816.66
2017-10-31T00:49:39.386Z,98812.00
2017-10-31T00:52:07.084Z,98812.96
2017-10-31T00:54:35.589Z,98810.65
2017-10-31T00:57:03.174Z,98814.61
2017-10-31T00:59:31.513Z,98810.43
2017-10-31T01:01:59.290Z,98808.72
2017-10-31T01:04:30.918Z,98804.89
2017-10-31T01:06:58.484Z,98803.67
2017-10-31T01:09:25.996Z,98804.20
2017-10-31T01:11:53.620Z,98806.28
2017-10-31T01:14:21.222Z,98806.66
2017-10-31T01:16:49.163Z,98801.89
2017-10-31T01:19:16.780Z,98805.00
2017-10-31T01:21:45.544Z,98804.94
2017-10-31T01:24:16.628Z,98795.48
2017-10-31T01:26:46.080Z,98803.16
2017-10-31T01:29:14.856Z,98799.64
2017-10-31T01:31:44.059Z,98794.81
2017-10-31T01:34:11.783Z,98800.20
2017-10-31T01:36:39.764Z,98797.12
2017-10-31T01:39:08.046Z,98791.25
2017-10-31T01:41:36.364Z,98787.80
2017-10-31T01:44:05.577Z,98788.29
2017-10-31T01:46:34.354Z,98784.30
2017-10-31T01:49:02.159Z,98787.61
2017-10-31T01:51:29.911Z,98793.31
2017-10-31T01:53:59.464Z,98785.77
2017-10-31T01:56:27.302Z,98790.63
2017-10-31T01:58:55.819Z,98793.54
2017-10-31T02:01:23.576Z,98791.39
2017-10-31T02:03:51.296Z,98790.21
2017-10-31T02:06:18.911Z,98786.16
2017-10-31T02:08:48.037Z,98790.38
2017-10-31T02:11:16.533Z,98791.97
2017-10-31T02:13:44.928Z,98793.88
2017-10-31T02:16:12.596Z,98788.24
2017-10-31T02:18:40.453Z,98785.14
2017-10-31T02:21:08.289Z,98787.09
2017-10-31T02:23:35.917Z,98789.03
2017-10-31T02:26:04.448Z,98787.59
2017-10-31T02:28:32.270Z,98790.00
2017-10-31T02:30:59.983Z,98783.89
2017-10-31T02:33:28.672Z,98775.63
2017-10-31T02:35:56.375Z,98775.63
2017-10-31T02:38:24.544Z,98776.38
2017-10-31T02:40:52.145Z,98786.43
2017-10-31T02:43:19.775Z,98778.59
2017-10-31T02:45:47.343Z,98783.16
2017-10-31T02:48:14.888Z,98782.34
2017-10-31T02:50:42.530Z,98771.84
2017-10-31T02:53:10.073Z,98769.50
2017-10-31T02:55:38.309Z,98779.20
2017-10-31T02:58:06.626Z,98776.73
2017-10-31T03:00:34.407Z,98778.08
2017-10-31T03:03:01.982Z,98779.19
2017-10-31T03:05:29.617Z,98752.00
2017-10-31T03:07:57.195Z,98778.87
2017-10-31T03:10:24.910Z,98776.34
2017-10-31T03:12:52.511Z,98773.92
2017-10-31T03:15:20.088Z,98785.38
2017-10-31T03:17:47.885Z,98775.02
2017-10-31T03:20:15.521Z,98779.41
2017-10-31T03:22:43.081Z,98777.49
2017-10-31T03:25:10.673Z,98779.55
2017-10-31T03:27:38.205Z,98782.38
2017-10-31T03:30:06.554Z,98786.54
2017-10-31T03:32:34.319Z,98783.79
2017-10-31T03:35:02.312Z,98786.03
2017-10-31T03:37:29.805Z,98788.27
2017-10-31T03:39:57.456Z,98798.41
2017-10-31T03:42:25.040Z,98792.93
2017-10-31T03:44:52.662Z,98792.36
2017-10-31T03:47:20.212Z,98793.75
2017-10-31T03:49:48.863Z,98788.23
2017-10-31T03:52:18.193Z,98795.02
2017-10-31T03:54:45.898Z,98797.70
2017-10-31T03:57:13.478Z,98794.13
2017-10-31T03:59:41.055Z,98796.26
2017-10-31T04:02:08.636Z,98800.80
2017-10-31T04:04:36.204Z,98800.59
2017-10-31T04:07:04.463Z,98793.33
2017-10-31T04:09:33.067Z,98805.78
2017-10-31T04:12:00.696Z,98804.39
2017-10-31T04:14:28.433Z,98808.03
2017-10-31T04:16:56.070Z,98806.57
2017-10-31T04:19:23.705Z,98813.00
2017-10-31T04:21:51.224Z,98808.50
2017-10-31T04:24:18.880Z,98805.19
2017-10-31T04:26:46.367Z,98810.45
2017-10-31T04:29:14.082Z,98801.48
2017-10-31T04:31:44.998Z,98797.19
2017-10-31T04:34:12.509Z,98796.73
2017-10-31T04:36:40.655Z,98803.00
2017-10-31T04:39:10.525Z,98796.52
2017-10-31T04:41:38.200Z,98789.84
2017-10-31T04:44:06.452Z,98795.56
2017-10-31T04:46:34.021Z,98785.19
2017-10-31T04:49:01.652Z,98788.09
2017-10-31T04:51:29.208Z,98797.34
2017-10-31T04:53:58.046Z,98793.67
2017-10-31T04:56:25.607Z,98787.44
2017-10-31T04:58:53.144Z,98783.56
2017-10-31T05:01:21.575Z,98776.83
2017-10-31T05:03:49.156Z,98784.79
2017-10-31T05:06:16.712Z,98784.47
2017-10-31T05:08:44.350Z,98780.80
2017-10-31T05:11:11.901Z,98775.53
2017-10-31T05:13:39.482Z,98773.34
2017-10-31T05:16:07.088Z,98769.31
2017-10-31T05:18:34.818Z,98765.39
2017-10-31T05:21:02.380Z,98771.13
2017-10-31T05:23:30.017Z,98766.20
2017-10-31T05:25:58.307Z,98764.06
2017-10-31T05:28:26.604Z,98757.84
2017-10-31T05:30:54.386Z,98759.67
2017-10-31T05:33:22.921Z,98768.05
2017-10-31T05:35:50.587Z,98772.13
2017-10-31T05:38:18.576Z,98770.95
2017-10-31T05:40:46.610Z,98765.63
2017-10-31T05:43:14.134Z,98767.11
2017-10-31T05:45:41.787Z,98768.55
2017-10-31T05:48:09.458Z,98772.12
2017-10-31T05:50:36.963Z,98772.61
2017-10-31T05:53:04.447Z,98774.77
2017-10-31T05:55:31.929Z,98786.27
2017-10-31T05:57:59.452Z,98786.45
2017-10-31T06:00:26.947Z,98780.05
2017-10-31T06:02:54.434Z,98789.28
2017-10-31T06:05:21.946Z,98789.11
2017-10-31T06:07:49.442Z,98794.95
2017-10-31T06:10:16.993Z,98796.73
2017-10-31T06:12:44.513Z,98798.36
2017-10-31T06:15:12.135Z,98794.69
2017-10-31T06:17:39.675Z,98788.77
2017-10-31T06:20:07.233Z,98796.63
2017-10-31T06:22:40.890Z,98793.09
2017-10-31T06:25:13.922Z,98794.90
2017-10-31T06:27:46.910Z,98802.61
2017-10-31T06:30:20.183Z,98806.42
2017-10-31T06:32:47.705Z,98808.93
2017-10-31T06:35:15.218Z,98815.16
2017-10-31T06:37:42.774Z,98816.89
2017-10-31T06:40:10.417Z,98812.83
2017-10-31T06:42:37.973Z,98812.61
2017-10-31T06:45:05.588Z,98811.65
2017-10-31T06:47:33.126Z,98811.56
2017-10-31T06:50:00.773Z,98817.06
2017-10-31T06:52:28.330Z,98814.87
2017-10-31T06:54:55.898Z,98819.33
2017-10-31T06:57:23.397Z,98814.03
2017-10-31T06:59:50.911Z,98808.16
2017-10-31T07:02:18.450Z,98762.62
2017-10-31T07:04:45.950Z,98800.31
2017-10-31T07:07:13.787Z,98805.77
2017-10-31T07:09:41.327Z,98805.50
2017-10-31T07:12:08.885Z,98805.24
2017-10-31T07:14:36.421Z,98800.97
2017-10-31T07:17:03.979Z,98808.28
2017-10-31T07:19:31.500Z,98812.94
2017-10-31T07:21:59.696Z,98816.89
2017-10-31T07:24:27.231Z,98812.83
2017-10-31T07:26:54.769Z,98807.34
2017-10-31T07:29:22.311Z,98806.34
2017-10-31T07:31:49.879Z,98806.26
2017-10-31T07:34:17.428Z,98806.81
2017-10-31T07:36:44.952Z,98808.62
2017-10-31T07:39:12.548Z,98797.47
2017-10-31T07:41:40.097Z,98807.38
2017-10-31T07:44:07.622Z,98812.17
2017-10-31T07:46:35.174Z,98810.59
2017-10-31T07:49:03.813Z,98817.63
2017-10-31T07:51:31.495Z,98817.25
2017-10-31T07:53:59.090Z,98816.45
2017-10-31T07:56:26.748Z,98814.83
2017-10-31T07:58:54.340Z,98813.06
2017-10-31T08:01:21.935Z,98805.98
2017-10-31T08:03:49.495Z,98813.13
2017-10-31T08:06:17.075Z,98814.03
2017-10-31T08:08:44.739Z,98818.00
2017-10-31T08:11:12.313Z,98816.44
2017-10-31T08:13:39.855Z,98820.48
2017-10-31T08:16:07.371Z,98817.84
2017-10-31T08:18:34.942Z,98822.01
2017-10-31T08:21:02.460Z,98820.92
2017-10-31T08:23:29.986Z,98816.92
2017-10-31T08:25:57.525Z,98828.34
2017-10-31T08:28:25.014Z,98825.66
2017-10-31T08:30:52.593Z,98830.50
2017-10-31T08:33:20.154Z,98831.99
2017-10-31T08:35:47.710Z,98842.43
2017-10-31T08:38:15.259Z,98834.70
2017-10-31T08:40:42.883Z,98833.47
2017-10-31T08:43:10.412Z,98835.09
2017-10-31T08:45:40.142Z,98842.94
2017-10-31T08:48:11.511Z,98840.05
2017-10-31T08:50:39.054Z,98838.59
2017-10-31T08:53:06.698Z,98839.07
2017-10-31T08:55:38.769Z,98832.16
2017-10-31T08:58:06.309Z,98835.62
2017-10-31T09:00:33.865Z,98843.06
2017-10-31T09:03:01.585Z,98837.36
2017-10-31T09:05:29.074Z,98840.76
2017-10-31T09:07:56.620Z,98837.53
2017-10-31T09:10:24.187Z,98837.45
2017-10-31T09:12:51.730Z,98832.19
2017-10-31T09:15:19.308Z,98832.86
2017-10-31T09:18:03.794Z,98825.67
2017-10-31T10:46:17.507Z,98794.98
2017-10-31T10:48:45.038Z,98792.66
2017-10-31T10:51:12.507Z,98785.36
2017-10-31T10:53:40.048Z,98784.47
2017-10-31T10:56:07.563Z,98780.49
2017-10-31T10:58:35.084Z,98780.41
2017-10-31T11:01:02.597Z,98784.02
2017-10-31T11:03:30.078Z,98769.58
2017-10-31T11:05:57.570Z,98768.31
2017-10-31T11:08:25.158Z,98766.45
2017-10-31T11:10:52.670Z,98764.27
2017-10-31T11:13:20.187Z,98759.36
2017-10-31T11:15:47.670Z,98758.34
2017-10-31T11:18:15.185Z,98751.77
2017-10-31T11:20:42.711Z,98751.11
2017-10-31T11:23:10.196Z,98749.99
2017-10-31T11:25:37.683Z,98744.47
2017-10-31T11:28:06.225Z,98742.13
2017-10-31T11:30:33.728Z,98740.93
2017-10-31T11:33:01.209Z,98736.39
2017-10-31T11:35:28.755Z,98729.92
2017-10-31T11:37:56.317Z,98723.27
2017-10-31T11:40:23.777Z,98721.19
2017-10-31T11:42:51.288Z,98724.88
2017-10-31T11:45:18.772Z,98720.39
2017-10-31T11:47:46.285Z,98720.47
2017-10-31T11:50:13.780Z,98719.64
2017-10-31T11:52:41.258Z,98719.36
2017-10-31T11:55:08.806Z,98713.31
2017-10-31T11:57:36.286Z,98717.74
2017-10-31T12:00:03.795Z,98713.94
2017-10-31T12:02:31.306Z,98706.17
2017-10-31T12:04:58.826Z,98712.55
2017-10-31T12:07:26.344Z,98706.25
2017-10-31T12:09:53.833Z,98706.56
2017-10-31T12:12:21.329Z,98697.41
2017-10-31T12:14:48.880Z,98699.38
2017-10-31T12:17:16.417Z,98696.36
2017-10-31T12:19:43.926Z,98700.35
2017-10-31T12:22:11.429Z,98691.70
2017-10-31T12:24:38.983Z,98694.52
2017-10-31T12:27:06.477Z,98692.52
2017-10-31T12:29:34.209Z,98692.77
2017-10-31T12:32:01.733Z,98693.48
2017-10-31T12:34:29.311Z,98693.94
2017-10-31T12:36:56.910Z,98689.02
2017-10-31T12:39:24.464Z,98685.38
2017-10-31T12:41:52.060Z,98690.33
2017-10-31T12:44:19.557Z,98691.02
2017-10-31T12:46:47.054Z,98689.64
2017-10-31T12:49:14.554Z,98684.77
2017-10-31T12:51:42.112Z,98680.52
2017-10-31T12:54:09.774Z,98684.59
2017-10-31T12:56:38.098Z,98679.66
2017-10-31T12:59:05.657Z,98673.56
2017-10-31T13:01:33.135Z,98680.45
2017-10-31T13:04:00.640Z,98678.80
2017-10-31T13:06:28.171Z,98679.50
2017-10-31T13:08:55.630Z,98668.36
2017-10-31T13:11:23.179Z,98670.47
2017-10-31T13:13:51.115Z,98671.50
2017-10-31T13:16:18.633Z,98665.91
2017-10-31T13:18:46.451Z,98665.02
2017-10-31T13:21:13.973Z,98670.06
2017-10-31T13:23:41.452Z,98672.78
2017-10-31T13:26:09.264Z,98673.23
2017-10-31T13:28:37.285Z,98667.23
2017-10-31T13:31:05.144Z,98670.92
2017-10-31T13:33:33.175Z,98668.59
2017-10-31T13:36:01.056Z,98663.59
2017-10-31T13:38:29.096Z,98658.02
2017-10-31T13:40:57.583Z,98658.41
2017-10-31T13:43:26.190Z,98663.33
2017-10-31T13:45:54.437Z,98656.14
2017-10-31T13:48:22.273Z,98656.77
2017-10-31T13:50:50.719Z,98664.23
2017-10-31T13:53:18.318Z,98657.66
2017-10-31T13:55:45.869Z,98659.26
2017-10-31T13:58:13.411Z,98655.41
2017-10-31T14:00:41.868Z,98660.47
2017-10-31T14:03:13.181Z,98651.45
2017-10-31T14:05:41.311Z,98646.73
2017-10-31T14:08:09.237Z,98646.30
2017-10-31T14:10:37.061Z,98645.58
2017-10-31T14:13:04.670Z,98643.63
2017-10-31T14:15:32.275Z,98633.72
2017-10-31T14:18:01.136Z,98632.13
2017-10-31T14:20:28.982Z,98626.80
2017-10-31T14:22:56.680Z,98626.20
2017-10-31T14:25:24.858Z,98630.34
2017-10-31T14:27:52.392Z,98626.00
2017-10-31T14:30:20.006Z,98619.03
2017-10-31T14:32:51.260Z,98625.06
2017-10-31T14:35:18.781Z,98620.34
2017-10-31T14:37:46.541Z,98617.97
2017-10-31T14:40:14.045Z,98627.16
2017-10-31T14:42:41.655Z,98624.89
2017-10-31T14:45:09.169Z,98625.95
2017-10-31T14:47:36.743Z,98627.05
2017-10-31T14:50:04.284Z,98632.58
2017-10-31T14:52:31.828Z,98636.55
2017-10-31T14:54:59.581Z,98632.18
2017-10-31T14:57:27.279Z,98627.77
2017-10-31T14:59:54.857Z,98626.96
2017-10-31T15:02:22.397Z,98620.72
2017-10-31T15:04:51.250Z,98617.55
2017-10-31T15:07:18.966Z,98617.80
2017-10-31T15:09:46.505Z,98607.93
2017-10-31T15:12:14.061Z,98607.48
2017-10-31T15:14:41.748Z,98609.22
2017-10-31T15:17:10.019Z,98606.02
2017-10-31T15:19:37.642Z,98600.47
2017-10-31T15:22:05.329Z,98606.56
2017-10-31T15:24:33.332Z,98604.95
2017-10-31T15:27:00.926Z,98610.02
2017-10-31T15:29:28.498Z,98607.39
2017-10-31T15:31:56.402Z,98611.07
2017-10-31T15:34:23.983Z,98611.73
2017-10-31T15:36:51.557Z,98612.99
2017-10-31T15:39:19.104Z,98612.40
2017-10-31T15:41:46.671Z,98604.62
2017-10-31T15:44:14.253Z,98605.19
2017-10-31T15:46:41.817Z,98610.03
2017-10-31T15:49:09.368Z,98603.19
2017-10-31T15:51:36.951Z,98606.75
2017-10-31T15:54:04.549Z,98604.59
2017-10-31T15:56:32.110Z,98602.38
2017-10-31T15:58:59.680Z,98610.52
2017-10-31T16:01:27.228Z,98602.19
2017-10-31T16:03:54.841Z,98604.89
2017-10-31T16:06:22.461Z,98600.72
2017-10-31T16:08:50.361Z,98610.88
2017-10-31T16:11:17.937Z,98611.41
2017-10-31T16:13:45.524Z,98621.30
2017-10-31T16:16:13.107Z,98616.98
2017-10-31T16:18:40.677Z,98629.11
2017-10-31T16:21:08.229Z,98624.80
2017-10-31T16:23:35.758Z,98625.14
2017-10-31T16:26:03.283Z,98629.58
2017-10-31T16:28:30.839Z,98637.25
2017-10-31T16:30:58.397Z,98634.15
2017-10-31T16:33:25.944Z,98645.58
2017-10-31T16:35:53.584Z,98645.69
2017-10-31T16:38:21.079Z,98646.72
2017-10-31T16:40:48.597Z,98644.69
2017-10-31T16:43:16.956Z,98637.61
2017-10-31T16:45:44.505Z,98639.06
2017-10-31T16:48:12.079Z,98647.13
2017-10-31T16:50:39.625Z,98644.19
2017-10-31T16:53:07.182Z,98641.11
2017-10-31T16:55:34.709Z,98641.92
2017-10-31T16:58:02.247Z,98642.83
2017-10-31T17:00:29.831Z,98641.48
2017-10-31T17:02:57.384Z,98645.69
2017-10-31T17:05:25.220Z,98643.28
2017-10-31T17:07:52.827Z,98641.56
2017-10-31T17:10:20.988Z,98647.00
2017-10-31T17:12:48.529Z,98643.42
2017-10-31T17:15:16.155Z,98638.31
2017-10-31T17:17:44.095Z,98638.35
2017-10-31T17:20:11.680Z,98639.48
2017-10-31T17:22:39.283Z,98644.16
2017-10-31T17:25:06.851Z,98646.05
2017-10-31T17:27:34.437Z,98653.66
2017-10-31T17:30:03.828Z,98653.63
2017-10-31T17:32:31.426Z,98657.11
2017-10-31T17:34:59.107Z,98654.52
2017-10-31T17:37:26.900Z,98657.73
2017-10-31T17:39:54.739Z,98653.56
2017-10-31T17:42:22.387Z,98657.39
2017-10-31T17:44:50.142Z,98652.16
2017-10-31T17:47:17.855Z,98657.33
2017-10-31T17:49:45.408Z,98658.34
2017-10-31T17:52:13.545Z,98652.10
2017-10-31T17:54:41.155Z,98651.41
2017-10-31T17:57:08.848Z,98650.25
2017-10-31T17:59:36.530Z,98641.06
2017-10-31T18:02:04.294Z,98603.98
2017-10-31T18:04:31.855Z,98656.17
2017-10-31T18:06:59.405Z,98652.73
2017-10-31T18:09:27.164Z,98655.98
2017-10-31T18:11:54.946Z,98655.81
2017-10-31T18:14:22.571Z,98649.63
2017-10-31T18:16:50.794Z,98653.88
2017-10-31T18:19:19.177Z,98662.52
2017-10-31T18:21:46.739Z,98659.29
2017-10-31T18:24:14.599Z,98665.25
2017-10-31T18:26:42.170Z,98669.03
2017-10-31T18:29:09.832Z,98667.33
2017-10-31T18:31:37.523Z,98665.05
2017-10-31T18:34:07.244Z,98668.61
2017-10-31T18:36:34.792Z,98662.09
2017-10-31T18:39:02.414Z,98658.97
2017-10-31T18:41:29.945Z,98663.58
2017-10-31T18:43:57.564Z,98655.19
2017-10-31T18:46:25.152Z,98662.39
2017-10-31T18:48:52.839Z,98665.86
2017-10-31T18:51:20.622Z,98658.03
2017-10-31T18:53:48.356Z,98654.66
2017-10-31T18:56:16.132Z,98652.37
2017-10-31T18:58:43.749Z,98652.23
2017-10-31T19:01:11.497Z,98648.46
2017-10-31T19:03:39.065Z,98645.15
2017-10-31T19:06:06.749Z,98637.86
2017-10-31T19:08:35.054Z,98649.14
2017-10-31T19:11:03.730Z,98657.06
2017-10-31T19:13:33.180Z,98657.25
2017-10-31T19:16:00.929Z,98659.13
2017-10-31T19:18:28.545Z,98660.36
2017-10-31T19:20:56.092Z,98666.59
2017-10-31T19:23:23.811Z,98663.05
2017-10-31T19:25:51.354Z,98667.46
2017-10-31T19:28:18.929Z,98666.47
2017-10-31T19:30:46.510Z,98658.13
2017-10-31T19:33:14.139Z,98656.02
2017-10-31T19:35:41.885Z,98656.89
2017-10-31T19:38:09.504Z,98660.06
2017-10-31T19:40:37.115Z,98662.63
2017-10-31T19:43:04.641Z,98652.94
2017-10-31T19:45:32.444Z,98644.83
2017-10-31T19:48:00.202Z,98641.52
2017-10-31T19:50:27.962Z,98640.70
2017-10-31T19:52:55.606Z,98649.69
2017-10-31T19:55:23.619Z,98649.16
2017-10-31T19:57:51.239Z,98658.23
2017-10-31T20:00:19.104Z,98660.44
2017-10-31T20:02:46.715Z,98660.37
2017-10-31T20:05:14.912Z,98655.41
2017-10-31T20:07:42.597Z,98669.92
2017-10-31T20:10:10.526Z,98672.41
2017-10-31T20:12:38.682Z,98667.84
2017-10-31T20:15:06.305Z,98677.54
2017-10-31T20:17:34.224Z,98677.77
2017-10-31T20:20:02.114Z,98678.34
2017-10-31T20:22:29.833Z,98679.55
2017-10-31T20:24:57.408Z,98687.42
2017-10-31T20:27:25.068Z,98683.00
2017-10-31T20:29:56.321Z,98679.05
2017-10-31T20:32:23.901Z,98680.16
2017-10-31T20:34:51.474Z,98687.05
2017-10-31T20:37:19.354Z,98692.67
2017-10-31T20:39:51.592Z,98682.52
2017-10-31T20:42:19.267Z,98689.17
2017-10-31T20:44:46.904Z,98680.58
2017-10-31T20:47:14.512Z,98671.94
2017-10-31T20:49:42.134Z,98674.48
2017-10-31T20:52:10.525Z,98674.13
2017-10-31T20:54:38.121Z,98678.28
2017-10-31T20:57:05.980Z,98678.14
2017-10-31T20:59:33.770Z,98667.97
2017-10-31T21:02:01.363Z,98663.88
2017-10-31T21:04:29.002Z,98656.58
2017-10-31T21:06:59.580Z,98656.19
2017-10-31T21:09:27.456Z,98652.20
2017-10-31T21:11:55.112Z,98645.08
2017-10-31T21:14:22.678Z,98645.73
2017-10-31T21:16:51.176Z,98643.48
2017-10-31T21:19:18.875Z,98640.23
2017-10-31T21:21:46.547Z,98637.62
2017-10-31T21:24:15.978Z,98640.16
2017-10-31T21:26:43.576Z,98637.32
2017-10-31T21:29:11.193Z,98637.44
2017-10-31T21:31:43.549Z,98639.25
2017-10-31T21:34:12.196Z,98636.87
2017-10-31T21:39:17.101Z,98642.08
2017-10-31T21:41:44.717Z,98634.10
2017-10-31T21:44:14.098Z,98633.05
2017-10-31T21:46:41.858Z,98631.19
2017-10-31T21:49:09.575Z,98626.51
2017-10-31T21:51:37.366Z,98616.70
2017-10-31T21:54:05.870Z,98626.51
2017-10-31T21:56:33.525Z,98616.69
2017-10-31T21:59:01.134Z,98618.59
2017-10-31T22:01:29.133Z,98622.41
2017-10-31T22:03:56.898Z,98617.66
2017-10-31T22:06:24.516Z,98613.66
2017-10-31T22:08:56.364Z,98621.43
2017-10-31T22:11:23.951Z,98619.45
2017-10-31T22:13:51.941Z,98618.56
2017-10-31T22:16:19.843Z,98619.91
2017-10-31T22:18:47.561Z,98613.67
2017-10-31T22:21:19.071Z,98615.84
2017-10-31T22:23:46.826Z,98607.27
2017-10-31T22:26:14.603Z,98606.00
2017-10-31T22:28:42.222Z,98597.84
2017-10-31T22:31:09.899Z,98602.19
2017-10-31T22:33:38.416Z,98593.04
2017-10-31T22:36:06.075Z,98600.03
2017-10-31T22:38:33.793Z,98601.77
2017-10-31T22:41:01.406Z,98598.71
2017-10-31T22:43:29.064Z,98598.67
2017-10-31T22:45:56.641Z,98586.39
2017-10-31T22:48:24.237Z,98593.64
2017-10-31T22:50:51.852Z,98599.33
2017-10-31T22:53:19.513Z,98594.41
2017-10-31T22:55:47.372Z,98599.14
2017-10-31T22:58:14.962Z,98591.23
2017-10-31T23:00:42.605Z,98596.63
2017-10-31T23:03:10.270Z,98599.50
2017-10-31T23:05:37.979Z,98591.07
2017-10-31T23:08:05.574Z,98591.52
2017-10-31T23:10:33.193Z,98593.50
2017-10-31T23:13:00.897Z,98592.17
2017-10-31T23:15:28.617Z,98590.30
2017-10-31T23:17:59.343Z,98589.45
2017-10-31T23:20:27.000Z,98584.70
2017-10-31T23:22:55.010Z,98583.33
2017-10-31T23:25:24.695Z,98585.11
2017-10-31T23:27:52.689Z,98580.40
2017-10-31T23:30:20.551Z,98578.16
2017-10-31T23:32:51.506Z,98578.71
2017-10-31T23:35:27.363Z,98585.19
2017-10-31T23:37:55.902Z,98577.41
2017-10-31T23:40:23.878Z,98581.09
2017-10-31T23:43:00.077Z,98577.19
2017-10-31T23:45:28.193Z,98578.51
2017-10-31T23:47:56.070Z,98574.48
2017-10-31T23:50:24.386Z,98576.08
2017-10-31T23:52:52.152Z,98572.77
2017-10-31T23:55:19.804Z,98566.36
2017-10-31T23:57:47.735Z,98564.14
